createdAt,value
2018-07-20T00:01:09.772Z,4.20
2018-07-20T00:03:38.156Z,6.17
2018-07-20T00:06:06.554Z,4.50
2018-07-20T00:08:34.945Z,4.83
2018-07-20T00:11:03.385Z,4.53
2018-07-20T00:13:31.837Z,4.77
2018-07-20T00:16:00.302Z,4.10
2018-07-20T00:18:29.267Z,5.33
2018-07-20T00:20:58.381Z,4.40
2018-07-20T00:23:26.753Z,4.17
2018-07-20T00:25:55.199Z,4.87
2018-07-20T00:28:23.601Z,4.33
2018-07-20T00:30:52.027Z,3.93
2018-07-20T00:33:20.511Z,4.47
2018-07-20T00:35:48.894Z,6.50
2018-07-20T00:38:17.265Z,5.80
2018-07-20T00:40:45.647Z,3.93
2018-07-20T00:43:14.377Z,4.07
2018-07-20T00:45:42.877Z,4.87
2018-07-20T00:48:11.276Z,4.30
2018-07-20T00:50:39.658Z,4.20
2018-07-20T00:53:08.107Z,4.63
2018-07-20T00:55:36.798Z,4.70
2018-07-20T00:58:05.297Z,6.00
2018-07-20T01:00:33.733Z,7.47
2018-07-20T01:03:02.264Z,5.23
2018-07-20T01:05:30.793Z,4.50
2018-07-20T01:07:59.139Z,5.77
2018-07-20T01:10:27.558Z,6.37
2018-07-20T01:12:55.946Z,4.70
2018-07-20T01:15:24.318Z,6.87
2018-07-20T01:17:52.704Z,5.17
2018-07-20T01:20:20.772Z,5.00
2018-07-20T01:22:48.880Z,4.70
2018-07-20T01:25:17.321Z,6.43
2018-07-20T01:27:45.745Z,6.97
2018-07-20T01:30:14.284Z,8.43
2018-07-20T01:32:42.693Z,6.77
2018-07-20T01:35:11.052Z,5.67
2018-07-20T01:37:39.431Z,7.73
2018-07-20T01:40:07.798Z,7.03
2018-07-20T01:42:36.101Z,5.30
2018-07-20T01:45:04.610Z,6.20
2018-07-20T01:47:32.996Z,5.70
2018-07-20T01:50:01.392Z,5.60
2018-07-20T01:52:29.732Z,7.93
2018-07-20T01:54:58.105Z,5.80
2018-07-20T01:57:26.544Z,5.27
2018-07-20T01:59:54.921Z,5.20
2018-07-20T02:02:23.426Z,6.70
2018-07-20T02:04:51.858Z,10.17
2018-07-20T02:07:20.273Z,5.60
2018-07-20T02:09:48.670Z,5.63
2018-07-20T02:12:17.138Z,6.53
2018-07-20T02:14:45.512Z,7.03
2018-07-20T02:17:13.953Z,5.83
2018-07-20T02:19:42.392Z,5.90
2018-07-20T02:22:10.773Z,5.87
2018-07-20T02:24:39.154Z,7.20
2018-07-20T02:27:07.583Z,6.50
2018-07-20T02:29:36.063Z,8.90
2018-07-20T02:32:04.433Z,6.73
2018-07-20T02:34:32.828Z,7.60
2018-07-20T02:37:01.222Z,7.47
2018-07-20T02:39:29.681Z,7.10
2018-07-20T02:41:58.105Z,10.97
2018-07-20T02:44:26.492Z,9.33
2018-07-20T02:46:54.878Z,8.57
2018-07-20T02:49:23.317Z,7.57
2018-07-20T02:51:51.725Z,8.13
2018-07-20T02:54:20.113Z,8.17
2018-07-20T02:56:48.517Z,7.93
2018-07-20T02:59:17.218Z,7.93
2018-07-20T03:01:45.634Z,7.80
2018-07-20T03:04:14.017Z,6.93
2018-07-20T03:06:42.394Z,8.43
2018-07-20T03:09:12.459Z,8.77
2018-07-20T03:11:41.171Z,8.90
2018-07-20T03:14:10.514Z,9.00
2018-07-20T03:16:39.197Z,8.63
2018-07-20T03:19:07.978Z,8.23
2018-07-20T03:21:36.393Z,8.30
2018-07-20T03:24:04.779Z,8.03
2018-07-20T03:26:33.173Z,9.70
2018-07-20T03:29:01.577Z,11.13
2018-07-20T03:31:30.153Z,9.10
2018-07-20T03:33:58.596Z,11.83
2018-07-20T03:36:26.966Z,11.30
2018-07-20T03:38:55.494Z,10.13
2018-07-20T03:41:23.867Z,10.63
2018-07-20T03:43:52.286Z,11.13
2018-07-20T03:46:20.700Z,10.30
2018-07-20T03:48:49.125Z,10.00
2018-07-20T03:51:17.581Z,9.33
2018-07-20T03:53:46.015Z,13.23
2018-07-20T03:56:14.373Z,10.07
2018-07-20T03:58:42.706Z,9.87
2018-07-20T04:01:11.114Z,11.43
2018-07-20T04:03:39.506Z,12.57
2018-07-20T04:06:08.173Z,11.43
2018-07-20T04:08:36.546Z,13.80
2018-07-20T04:11:04.918Z,12.70
2018-07-20T04:13:33.342Z,12.77
2018-07-20T04:16:01.830Z,12.90
2018-07-20T04:18:30.283Z,12.73
2018-07-20T04:20:58.741Z,12.77
2018-07-20T04:23:27.145Z,13.27
2018-07-20T04:25:55.513Z,11.83
2018-07-20T04:28:23.973Z,12.50
2018-07-20T04:30:52.418Z,16.87
2018-07-20T04:33:20.900Z,14.07
2018-07-20T04:35:49.369Z,16.80
2018-07-20T04:38:17.733Z,18.33
2018-07-20T04:40:46.197Z,15.03
2018-07-20T04:43:14.572Z,14.50
2018-07-20T04:45:42.969Z,15.17
2018-07-20T04:48:11.369Z,15.23
2018-07-20T04:50:39.751Z,14.93
2018-07-20T04:53:08.231Z,15.23
2018-07-20T04:58:11.328Z,15.73
2018-07-20T05:00:39.744Z,16.23
2018-07-20T05:03:08.283Z,16.03
2018-07-20T05:05:36.705Z,16.67
2018-07-20T05:08:05.162Z,15.87
2018-07-20T05:10:33.621Z,15.10
2018-07-20T05:13:02.162Z,18.47
2018-07-20T05:15:30.553Z,15.03
2018-07-20T05:17:58.953Z,15.13
2018-07-20T05:20:27.373Z,19.30
2018-07-20T05:22:55.919Z,15.63
2018-07-20T05:25:24.324Z,14.40
2018-07-20T05:27:53.429Z,14.87
2018-07-20T05:30:21.858Z,15.27
2018-07-20T05:32:50.289Z,15.17
2018-07-20T05:35:18.759Z,14.23
2018-07-20T05:37:47.138Z,19.27
2018-07-20T05:40:15.525Z,15.60
2018-07-20T05:42:43.952Z,15.13
2018-07-20T05:45:12.417Z,16.43
2018-07-20T05:47:40.815Z,17.27
2018-07-20T05:50:09.244Z,17.53
2018-07-20T05:52:37.730Z,17.17
2018-07-20T05:55:06.258Z,16.07
2018-07-20T05:57:34.669Z,14.87
2018-07-20T06:00:03.069Z,14.53
2018-07-20T06:02:31.513Z,15.10
2018-07-20T06:04:59.996Z,14.57
2018-07-20T06:07:28.434Z,16.00
2018-07-20T06:09:56.865Z,11.20
2018-07-20T06:12:25.285Z,10.70
2018-07-20T06:14:53.686Z,13.63
2018-07-20T06:17:21.807Z,7.50
2018-07-20T06:19:50.246Z,16.33
2018-07-20T06:22:18.618Z,14.23
2018-07-20T06:24:47.002Z,15.23
2018-07-20T06:27:15.425Z,17.03
2018-07-20T06:29:43.835Z,14.67
2018-07-20T06:32:12.349Z,15.13
2018-07-20T06:34:40.504Z,17.63
2018-07-20T06:37:08.932Z,14.57
2018-07-20T06:39:37.370Z,11.00
2018-07-20T06:42:05.925Z,16.90
2018-07-20T06:44:38.490Z,15.43
2018-07-20T06:47:07.702Z,14.73
2018-07-20T06:49:36.213Z,16.00
2018-07-20T06:52:04.722Z,14.80
2018-07-20T06:54:33.152Z,16.50
2018-07-20T06:57:01.594Z,14.47
2018-07-20T06:59:30.008Z,17.27
2018-07-20T07:01:58.418Z,10.70
2018-07-20T07:04:26.804Z,17.30
2018-07-20T07:06:55.313Z,12.10
2018-07-20T07:09:23.833Z,10.57
2018-07-20T07:11:52.232Z,12.90
2018-07-20T07:14:20.638Z,11.23
2018-07-20T07:16:49.099Z,16.20
2018-07-20T07:19:17.475Z,10.70
2018-07-20T07:21:45.941Z,16.73
2018-07-20T07:24:14.359Z,12.07
2018-07-20T07:26:42.806Z,11.93
2018-07-20T07:29:11.303Z,9.97
2018-07-20T07:31:39.726Z,12.57
2018-07-20T07:34:08.209Z,12.37
2018-07-20T07:36:36.639Z,10.40
2018-07-20T07:39:08.495Z,13.37
2018-07-20T07:41:36.902Z,11.37
2018-07-20T07:44:05.440Z,9.40
2018-07-20T07:46:34.013Z,8.73
2018-07-20T07:49:02.417Z,12.97
2018-07-20T07:51:30.833Z,9.40
2018-07-20T07:53:59.248Z,8.00
2018-07-20T07:56:27.759Z,11.20
2018-07-20T07:58:56.202Z,13.20
2018-07-20T08:01:24.647Z,12.80
2018-07-20T08:03:53.064Z,13.97
2018-07-20T08:06:22.209Z,10.37
2018-07-20T08:08:50.658Z,10.30
2018-07-20T08:11:19.164Z,10.97
2018-07-20T08:13:47.601Z,9.70
2018-07-20T08:16:16.062Z,9.23
2018-07-20T08:18:44.531Z,14.13
2018-07-20T08:21:12.962Z,11.20
2018-07-20T08:23:41.432Z,7.73
2018-07-20T08:26:09.864Z,7.90
2018-07-20T08:28:38.359Z,5.53
2018-07-20T08:31:06.785Z,5.93
2018-07-20T08:33:35.222Z,3.83
2018-07-20T08:36:03.672Z,9.40
2018-07-20T08:38:32.241Z,7.67
2018-07-20T08:41:00.664Z,10.07
2018-07-20T08:43:29.056Z,7.03
2018-07-20T08:45:57.474Z,5.47
2018-07-20T08:48:25.876Z,13.23
2018-07-20T08:50:54.269Z,5.20
2018-07-20T08:53:22.728Z,6.10
2018-07-20T08:55:51.145Z,4.13
2018-07-20T08:58:19.533Z,5.77
2018-07-20T09:00:48.015Z,3.63
2018-07-20T09:03:16.518Z,3.20
2018-07-20T09:05:44.977Z,4.53
2018-07-20T09:08:13.424Z,5.93
2018-07-20T09:10:41.829Z,3.77
2018-07-20T09:13:10.279Z,4.23
2018-07-20T09:15:38.448Z,5.03
2018-07-20T09:18:06.904Z,5.97
2018-07-20T09:20:35.435Z,4.50
2018-07-20T09:23:03.896Z,3.00
2018-07-20T09:25:33.553Z,4.53
2018-07-20T09:28:02.008Z,3.80
2018-07-20T09:30:30.537Z,4.30
2018-07-20T09:32:59.321Z,5.07
2018-07-20T09:35:27.742Z,3.97
2018-07-20T09:37:56.162Z,4.33
2018-07-20T09:40:24.619Z,2.93
2018-07-20T09:42:53.137Z,3.70
2018-07-20T09:45:21.628Z,3.87
2018-07-20T09:47:50.041Z,5.10
2018-07-20T09:50:18.438Z,3.93
2018-07-20T09:52:47.821Z,4.43
2018-07-20T09:55:16.579Z,6.73
2018-07-20T09:57:45.269Z,3.67
2018-07-20T10:00:18.017Z,4.17
2018-07-20T10:02:46.486Z,3.80
2018-07-20T10:05:14.875Z,4.20
2018-07-20T10:07:43.112Z,5.70
2018-07-20T10:10:11.565Z,4.60
2018-07-20T10:15:15.013Z,3.90
2018-07-20T10:17:43.433Z,5.13
2018-07-20T10:20:11.862Z,7.50
2018-07-20T10:22:40.280Z,5.57
2018-07-20T10:25:08.643Z,4.47
2018-07-20T10:27:37.090Z,7.73
2018-07-20T10:30:05.924Z,6.23
2018-07-20T10:32:34.302Z,5.97
2018-07-20T10:35:02.673Z,5.50
2018-07-20T10:37:31.113Z,7.27
2018-07-20T10:39:59.553Z,7.40
2018-07-20T10:42:27.924Z,7.20
2018-07-20T10:44:56.302Z,7.77
2018-07-20T10:47:24.714Z,6.37
2018-07-20T10:49:53.251Z,4.63
2018-07-20T10:52:21.762Z,8.10
2018-07-20T10:54:50.124Z,7.87
2018-07-20T10:57:18.483Z,6.43
2018-07-20T10:59:47.132Z,7.23
2018-07-20T11:02:15.534Z,5.00
2018-07-20T11:04:44.068Z,10.50
2018-07-20T11:07:12.564Z,8.03
2018-07-20T11:09:41.000Z,12.97
2018-07-20T11:12:09.441Z,8.73
2018-07-20T11:14:37.568Z,6.57
2018-07-20T11:17:06.053Z,8.93
2018-07-20T11:19:34.550Z,8.00
2018-07-20T11:22:02.990Z,7.67
2018-07-20T11:24:31.401Z,8.10
2018-07-20T11:26:59.813Z,8.57
2018-07-20T11:29:28.282Z,7.60
2018-07-20T11:31:56.842Z,7.00
2018-07-20T11:34:25.366Z,7.10
2018-07-20T11:36:53.907Z,6.63
2018-07-20T11:39:22.285Z,6.40
2018-07-20T11:41:50.702Z,9.53
2018-07-20T11:44:19.123Z,4.87
2018-07-20T11:46:47.513Z,5.07
2018-07-20T11:49:15.900Z,6.17
2018-07-20T11:51:44.299Z,6.07
2018-07-20T11:54:12.701Z,6.10
2018-07-20T11:56:41.125Z,7.80
2018-07-20T11:59:09.537Z,17.57
2018-07-20T12:01:37.983Z,6.37
2018-07-20T12:04:06.422Z,5.73
2018-07-20T12:06:34.822Z,8.83
2018-07-20T12:09:04.305Z,6.17
2018-07-20T12:11:32.716Z,8.47
2018-07-20T12:14:01.120Z,10.53
2018-07-20T12:16:29.537Z,8.20
2018-07-20T12:18:57.967Z,7.90
2018-07-20T12:21:26.320Z,7.37
2018-07-20T12:23:54.794Z,8.20
2018-07-20T12:26:23.252Z,9.97
2018-07-20T12:28:51.674Z,8.93
2018-07-20T12:31:20.406Z,6.67
2018-07-20T12:33:48.962Z,8.10
2018-07-20T12:36:17.390Z,6.53
2018-07-20T12:38:45.876Z,7.20
2018-07-20T12:41:14.342Z,6.43
2018-07-20T12:43:42.809Z,4.20
2018-07-20T12:46:11.349Z,6.07
2018-07-20T12:48:39.741Z,7.60
2018-07-20T12:51:08.357Z,5.53
2018-07-20T12:53:43.685Z,5.90
2018-07-20T12:56:12.103Z,10.07
2018-07-20T12:58:40.590Z,9.73
2018-07-20T13:01:08.983Z,7.37
2018-07-20T13:03:37.481Z,11.47
2018-07-20T13:06:05.971Z,10.00
2018-07-20T13:08:34.069Z,7.37
2018-07-20T13:11:02.488Z,6.13
2018-07-20T13:13:30.924Z,8.93
2018-07-20T13:15:59.434Z,5.63
2018-07-20T13:18:27.880Z,5.77
2018-07-20T13:20:56.474Z,6.10
2018-07-20T13:23:31.753Z,9.23
2018-07-20T13:26:00.172Z,9.70
2018-07-20T13:28:28.586Z,5.20
2018-07-20T13:30:56.984Z,6.57
2018-07-20T13:33:25.482Z,6.53
2018-07-20T13:35:54.000Z,4.87
2018-07-20T13:38:22.477Z,9.00
2018-07-20T13:40:50.985Z,9.17
2018-07-20T13:43:19.409Z,7.20
2018-07-20T13:45:48.442Z,4.90
2018-07-20T13:48:16.867Z,6.23
2018-07-20T13:50:45.265Z,6.87
2018-07-20T13:53:13.699Z,4.77
2018-07-20T13:55:42.181Z,6.23
2018-07-20T13:58:10.603Z,5.30
2018-07-20T14:00:38.984Z,4.73
2018-07-20T14:03:07.397Z,6.63
2018-07-20T14:05:35.761Z,5.47
2018-07-20T14:08:04.144Z,7.60
2018-07-20T14:10:32.665Z,5.00
2018-07-20T14:13:01.145Z,7.77
2018-07-20T14:15:29.603Z,5.50
2018-07-20T14:17:58.100Z,5.17
2018-07-20T14:20:26.641Z,6.20
2018-07-20T14:22:55.105Z,6.60
2018-07-20T14:25:24.133Z,3.63
2018-07-20T14:27:52.679Z,9.47
2018-07-20T14:30:21.159Z,4.57
2018-07-20T14:32:49.730Z,6.33
2018-07-20T14:35:18.513Z,7.87
2018-07-20T14:37:46.873Z,6.20
2018-07-20T14:40:15.307Z,6.33
2018-07-20T14:42:43.747Z,9.07
2018-07-20T14:45:12.227Z,5.07
2018-07-20T14:47:40.612Z,5.70
2018-07-20T14:50:09.043Z,7.77
2018-07-20T14:52:37.433Z,4.17
2018-07-20T14:55:05.957Z,4.50
2018-07-20T14:57:34.470Z,5.50
2018-07-20T15:00:02.597Z,6.97
2018-07-20T15:02:31.020Z,4.97
2018-07-20T15:04:59.368Z,5.47
2018-07-20T15:07:27.766Z,4.37
2018-07-20T15:09:56.173Z,4.63
2018-07-20T15:12:24.740Z,5.03
2018-07-20T15:14:53.140Z,4.10
2018-07-20T15:17:21.718Z,4.57
2018-07-20T15:19:50.121Z,7.73
2018-07-20T15:22:18.578Z,4.53
2018-07-20T15:24:46.970Z,7.87
2018-07-20T15:27:15.337Z,5.43
2018-07-20T15:29:43.754Z,7.50
2018-07-20T15:32:12.191Z,4.17
2018-07-20T15:34:40.929Z,5.90
2018-07-20T15:37:09.336Z,3.70
2018-07-20T15:39:37.786Z,3.70
2018-07-20T15:42:06.260Z,6.60
2018-07-20T15:44:34.741Z,4.27
2018-07-20T15:47:03.236Z,5.50
2018-07-20T15:49:31.614Z,7.13
2018-07-20T15:54:28.744Z,4.57
2018-07-20T15:56:57.804Z,3.83
2018-07-20T15:59:26.305Z,7.23
2018-07-20T16:01:54.793Z,8.13
2018-07-20T16:04:23.232Z,4.07
2018-07-20T16:06:52.214Z,7.53
2018-07-20T16:09:20.677Z,5.00
2018-07-20T16:11:49.082Z,7.80
2018-07-20T16:14:17.526Z,7.43
2018-07-20T16:16:45.984Z,4.60
2018-07-20T16:19:14.461Z,5.03
2018-07-20T16:21:42.836Z,4.63
2018-07-20T16:24:11.228Z,5.90
2018-07-20T16:26:39.637Z,7.87
2018-07-20T16:29:08.020Z,4.23
2018-07-20T16:31:36.510Z,8.30
2018-07-20T16:34:04.941Z,4.40
2018-07-20T16:36:33.488Z,5.10
2018-07-20T16:39:01.962Z,5.37
2018-07-20T16:41:30.421Z,3.57
2018-07-20T16:43:58.557Z,7.00
2018-07-20T16:46:27.219Z,3.90
2018-07-20T16:48:55.653Z,5.40
2018-07-20T16:51:24.124Z,5.07
2018-07-20T16:53:52.666Z,9.00
2018-07-20T16:56:27.990Z,4.90
2018-07-20T16:58:56.680Z,5.87
2018-07-20T17:01:25.217Z,4.73
2018-07-20T17:03:54.552Z,4.33
2018-07-20T17:06:23.049Z,5.37
2018-07-20T17:08:51.447Z,4.07
2018-07-20T17:11:19.878Z,3.97
2018-07-20T17:13:48.463Z,3.93
2018-07-20T17:16:16.912Z,3.60
2018-07-20T17:18:46.110Z,4.80
2018-07-20T17:21:14.986Z,4.40
2018-07-20T17:23:44.018Z,4.07
2018-07-20T17:26:12.477Z,8.73
2018-07-20T17:28:41.190Z,4.87
2018-07-20T17:31:09.711Z,4.43
2018-07-20T17:33:38.190Z,7.33
2018-07-20T17:36:06.769Z,6.37
2018-07-20T17:38:35.090Z,6.60
2018-07-20T17:41:04.057Z,5.47
2018-07-20T17:43:32.505Z,5.73
2018-07-20T17:46:01.502Z,6.30
2018-07-20T17:48:29.964Z,3.73
2018-07-20T17:50:58.387Z,5.03
2018-07-20T17:53:27.098Z,4.60
2018-07-20T17:55:57.406Z,4.63
2018-07-20T17:58:25.928Z,3.50
2018-07-20T18:00:54.409Z,9.37
2018-07-20T18:03:22.862Z,8.90
2018-07-20T18:05:51.300Z,4.90
2018-07-20T18:08:21.597Z,6.33
2018-07-20T18:10:50.022Z,5.17
2018-07-20T18:13:18.389Z,7.20
2018-07-20T18:15:46.837Z,6.27
2018-07-20T18:18:15.265Z,4.73
2018-07-20T18:20:43.685Z,4.87
2018-07-20T18:23:12.134Z,4.97
2018-07-20T18:25:40.580Z,6.23
2018-07-20T18:28:09.026Z,4.37
2018-07-20T18:30:38.798Z,4.17
2018-07-20T18:33:07.229Z,6.07
2018-07-20T18:35:36.445Z,5.30
2018-07-20T18:38:05.473Z,5.17
2018-07-20T18:40:34.601Z,5.07
2018-07-20T18:43:03.874Z,6.60
2018-07-20T18:45:32.914Z,4.43
2018-07-20T18:48:01.393Z,6.47
2018-07-20T18:50:30.977Z,4.33
2018-07-20T18:52:59.637Z,3.40
2018-07-20T18:55:28.237Z,5.67
2018-07-20T18:57:56.844Z,7.00
2018-07-20T19:00:24.980Z,4.43
2018-07-20T19:02:53.638Z,4.43
2018-07-20T19:05:22.261Z,5.63
2018-07-20T19:07:50.793Z,6.90
2018-07-20T19:10:19.272Z,10.73
2018-07-20T19:12:48.126Z,6.07
2018-07-20T19:15:16.614Z,4.17
2018-07-20T19:17:45.069Z,4.87
2018-07-20T19:20:13.488Z,6.20
2018-07-20T19:22:41.904Z,5.27
2018-07-20T19:25:10.318Z,5.20
2018-07-20T19:27:38.735Z,6.77
2018-07-20T19:30:07.248Z,7.30
2018-07-20T19:32:35.753Z,10.83
2018-07-20T19:35:04.140Z,5.33
2018-07-20T19:37:33.112Z,6.40
2018-07-20T19:40:01.513Z,5.63
2018-07-20T19:42:29.849Z,8.77
2018-07-20T19:44:57.969Z,6.70
2018-07-20T19:47:26.385Z,7.63
2018-07-20T19:49:55.341Z,6.73
2018-07-20T19:52:23.781Z,5.10
2018-07-20T19:54:52.293Z,8.43
2018-07-20T19:57:20.844Z,7.10
2018-07-20T19:59:49.266Z,6.57
2018-07-20T20:02:17.720Z,7.83
2018-07-20T20:04:46.126Z,9.53
2018-07-20T20:07:14.512Z,9.43
2018-07-20T20:09:42.922Z,6.73
2018-07-20T20:12:11.317Z,8.13
2018-07-20T20:14:39.726Z,5.23
2018-07-20T20:17:08.105Z,10.53
2018-07-20T20:19:36.480Z,8.10
2018-07-20T20:22:04.669Z,7.10
2018-07-20T20:24:33.021Z,9.70
2018-07-20T20:27:01.397Z,6.23
2018-07-20T20:29:29.798Z,6.03
2018-07-20T20:31:58.208Z,7.60
2018-07-20T20:34:26.602Z,8.43
2018-07-20T20:36:55.070Z,10.37
2018-07-20T20:39:23.812Z,5.93
2018-07-20T20:41:52.338Z,8.27
2018-07-20T20:44:20.879Z,7.93
2018-07-20T20:46:49.161Z,9.97
2018-07-20T20:49:18.438Z,11.23
2018-07-20T20:51:46.868Z,7.03
2018-07-20T20:54:15.267Z,6.20
2018-07-20T20:56:43.765Z,5.10
2018-07-20T20:59:12.323Z,5.50
2018-07-20T21:01:40.755Z,6.23
2018-07-20T21:04:09.170Z,6.50
2018-07-20T21:06:37.600Z,5.33
2018-07-20T21:09:07.948Z,6.17
2018-07-20T21:11:36.378Z,5.10
2018-07-20T21:14:04.837Z,6.43
2018-07-20T21:16:33.275Z,5.67
2018-07-20T21:19:01.691Z,4.90
2018-07-20T21:21:30.207Z,5.93
2018-07-20T21:23:58.728Z,5.00
2018-07-20T21:26:27.168Z,4.60
2018-07-20T21:28:55.659Z,4.00
2018-07-20T21:31:24.090Z,4.27
2018-07-20T21:33:52.490Z,5.27
2018-07-20T21:36:20.926Z,6.70
2018-07-20T21:38:56.089Z,9.00
2018-07-20T21:41:24.522Z,6.37
2018-07-20T21:43:53.017Z,4.27
2018-07-20T21:46:21.433Z,4.73
2018-07-20T21:48:49.905Z,4.57
2018-07-20T21:51:17.957Z,6.73
2018-07-20T21:53:46.360Z,6.13
2018-07-20T21:56:14.798Z,6.70
2018-07-20T21:58:43.210Z,5.47
2018-07-20T22:01:11.643Z,5.30
2018-07-20T22:03:41.001Z,5.90
2018-07-20T22:06:09.391Z,9.13
2018-07-20T22:08:37.846Z,7.20
2018-07-20T22:11:06.304Z,5.30
2018-07-20T22:13:34.745Z,6.03
2018-07-20T22:16:03.201Z,5.87
2018-07-20T22:18:31.665Z,5.47
2018-07-20T22:21:00.113Z,4.57
2018-07-20T22:23:28.446Z,5.50
2018-07-20T22:25:56.913Z,12.07
2018-07-20T22:28:25.280Z,6.03
2018-07-20T22:30:53.692Z,8.63
2018-07-20T22:33:22.239Z,5.27
2018-07-20T22:35:50.681Z,4.67
2018-07-20T22:38:19.476Z,8.80
2018-07-20T22:40:47.869Z,4.27
2018-07-20T22:43:16.226Z,4.53
2018-07-20T22:45:44.637Z,4.07
2018-07-20T22:48:13.082Z,4.70
2018-07-20T22:50:41.469Z,6.27
2018-07-20T22:53:09.908Z,4.67
2018-07-20T22:55:38.326Z,7.10
2018-07-20T22:58:06.739Z,4.37
2018-07-20T23:00:35.148Z,5.23
2018-07-20T23:03:03.576Z,4.50
2018-07-20T23:05:31.915Z,5.17
2018-07-20T23:08:00.313Z,4.90
2018-07-20T23:10:28.735Z,8.33
2018-07-20T23:12:57.109Z,7.90
2018-07-20T23:15:25.601Z,9.63
2018-07-20T23:17:53.816Z,8.67
2018-07-20T23:20:22.173Z,8.13
2018-07-20T23:22:50.610Z,5.33
2018-07-20T23:25:19.030Z,6.33
2018-07-20T23:27:47.418Z,7.17
2018-07-20T23:30:15.837Z,6.60
2018-07-20T23:32:44.231Z,6.87
2018-07-20T23:35:12.609Z,7.10
2018-07-20T23:37:41.068Z,5.77
2018-07-20T23:40:09.526Z,8.30
2018-07-20T23:42:38.022Z,5.40
2018-07-20T23:45:06.490Z,5.00
2018-07-20T23:52:54.864Z,5.90
2018-07-20T23:55:23.266Z,7.00
2018-07-20T23:57:51.636Z,7.57
